sensor_id;sensor_type;location;lat;lon;timestamp;P1;durP1;ratioP1;P2;durP2;ratioP2
70122;SDS011;57489;37.404;24.920;2022-08-25T00:04:49;11.45;;;5.03;;
70122;SDS011;57489;37.404;24.920;2022-08-25T00:09:50;8.37;;;4.20;;
70122;SDS011;57489;37.404;24.920;2022-08-25T00:14:50;8.50;;;4.43;;
70122;SDS011;57489;37.404;24.920;2022-08-25T00:19:51;10.50;;;5.33;;
70122;SDS011;57489;37.404;24.920;2022-08-25T00:24:51;9.73;;;5.47;;
70122;SDS011;57489;37.404;24.920;2022-08-25T00:29:52;10.07;;;4.57;;
70122;SDS011;57489;37.404;24.920;2022-08-25T00:34:52;9.87;;;5.00;;
70122;SDS011;57489;37.404;24.920;2022-08-25T00:39:53;8.80;;;4.37;;
70122;SDS011;57489;37.404;24.920;2022-08-25T00:44:53;9.10;;;4.65;;
70122;SDS011;57489;37.404;24.920;2022-08-25T00:49:55;8.80;;;5.00;;
70122;SDS011;57489;37.404;24.920;2022-08-25T00:55:09;8.33;;;4.93;;
70122;SDS011;57489;37.404;24.920;2022-08-25T01:00:24;9.70;;;5.20;;
70122;SDS011;57489;37.404;24.920;2022-08-25T01:05:28;8.85;;;4.70;;
70122;SDS011;57489;37.404;24.920;2022-08-25T01:10:30;9.37;;;5.20;;
70122;SDS011;57489;37.404;24.920;2022-08-25T01:15:32;9.03;;;5.23;;
70122;SDS011;57489;37.404;24.920;2022-08-25T01:20:33;7.55;;;4.60;;
70122;SDS011;57489;37.404;24.920;2022-08-25T01:25:50;9.33;;;5.20;;
70122;SDS011;57489;37.404;24.920;2022-08-25T01:30:58;9.75;;;4.72;;
70122;SDS011;57489;37.404;24.920;2022-08-25T01:35:58;8.93;;;5.20;;
70122;SDS011;57489;37.404;24.920;2022-08-25T01:40:59;8.37;;;4.53;;
70122;SDS011;57489;37.404;24.920;2022-08-25T01:45:59;9.47;;;5.03;;
70122;SDS011;57489;37.404;24.920;2022-08-25T01:51:00;9.13;;;4.87;;
70122;SDS011;57489;37.404;24.920;2022-08-25T01:56:09;10.10;;;4.70;;
70122;SDS011;57489;37.404;24.920;2022-08-25T02:01:13;8.40;;;5.05;;
70122;SDS011;57489;37.404;24.920;2022-08-25T02:06:22;9.38;;;4.80;;
70122;SDS011;57489;37.404;24.920;2022-08-25T02:11:32;9.63;;;4.70;;
70122;SDS011;57489;37.404;24.920;2022-08-25T02:16:37;10.97;;;5.30;;
70122;SDS011;57489;37.404;24.920;2022-08-25T02:21:38;9.93;;;5.00;;
70122;SDS011;57489;37.404;24.920;2022-08-25T02:26:39;8.37;;;4.60;;
70122;SDS011;57489;37.404;24.920;2022-08-25T02:31:40;10.98;;;5.30;;
70122;SDS011;57489;37.404;24.920;2022-08-25T02:36:41;10.20;;;4.60;;
70122;SDS011;57489;37.404;24.920;2022-08-25T02:41:42;8.27;;;4.97;;
70122;SDS011;57489;37.404;24.920;2022-08-25T02:46:43;9.53;;;4.90;;
70122;SDS011;57489;37.404;24.920;2022-08-25T02:51:43;9.40;;;4.17;;
70122;SDS011;57489;37.404;24.920;2022-08-25T02:56:44;9.23;;;5.10;;
70122;SDS011;57489;37.404;24.920;2022-08-25T03:01:44;8.23;;;4.50;;
70122;SDS011;57489;37.404;24.920;2022-08-25T03:06:45;9.02;;;4.68;;
70122;SDS011;57489;37.404;24.920;2022-08-25T03:11:46;8.47;;;4.20;;
70122;SDS011;57489;37.404;24.920;2022-08-25T03:16:46;10.33;;;5.00;;
70122;SDS011;57489;37.404;24.920;2022-08-25T03:21:47;10.03;;;4.60;;
70122;SDS011;57489;37.404;24.920;2022-08-25T03:26:47;8.87;;;4.80;;
70122;SDS011;57489;37.404;24.920;2022-08-25T03:31:48;8.60;;;4.80;;
70122;SDS011;57489;37.404;24.920;2022-08-25T03:36:51;11.25;;;4.95;;
70122;SDS011;57489;37.404;24.920;2022-08-25T03:41:52;10.32;;;5.60;;
70122;SDS011;57489;37.404;24.920;2022-08-25T03:46:53;9.33;;;4.60;;
70122;SDS011;57489;37.404;24.920;2022-08-25T03:51:53;9.03;;;4.90;;
70122;SDS011;57489;37.404;24.920;2022-08-25T03:56:54;9.53;;;4.50;;
70122;SDS011;57489;37.404;24.920;2022-08-25T04:01:54;11.17;;;4.63;;
70122;SDS011;57489;37.404;24.920;2022-08-25T04:06:55;8.93;;;4.87;;
70122;SDS011;57489;37.404;24.920;2022-08-25T04:11:55;7.97;;;4.38;;
70122;SDS011;57489;37.404;24.920;2022-08-25T04:16:56;8.47;;;4.77;;
70122;SDS011;57489;37.404;24.920;2022-08-25T04:21:56;8.97;;;4.60;;
70122;SDS011;57489;37.404;24.920;2022-08-25T04:26:57;9.93;;;4.73;;
70122;SDS011;57489;37.404;24.920;2022-08-25T04:31:58;12.23;;;5.47;;
70122;SDS011;57489;37.404;24.920;2022-08-25T04:36:59;10.07;;;5.60;;
70122;SDS011;57489;37.404;24.920;2022-08-25T04:42:01;10.43;;;4.83;;
70122;SDS011;57489;37.404;24.920;2022-08-25T04:47:02;12.95;;;5.65;;
70122;SDS011;57489;37.404;24.920;2022-08-25T04:52:02;10.67;;;4.80;;
70122;SDS011;57489;37.404;24.920;2022-08-25T04:57:03;12.85;;;5.93;;
70122;SDS011;57489;37.404;24.920;2022-08-25T05:02:04;12.40;;;5.43;;
70122;SDS011;57489;37.404;24.920;2022-08-25T05:07:05;8.65;;;4.70;;
70122;SDS011;57489;37.404;24.920;2022-08-25T05:12:05;14.27;;;5.23;;
70122;SDS011;57489;37.404;24.920;2022-08-25T05:17:06;10.97;;;5.73;;
70122;SDS011;57489;37.404;24.920;2022-08-25T05:22:06;12.55;;;5.72;;
70122;SDS011;57489;37.404;24.920;2022-08-25T05:27:07;11.67;;;5.30;;
70122;SDS011;57489;37.404;24.920;2022-08-25T05:32:07;12.50;;;5.23;;
70122;SDS011;57489;37.404;24.920;2022-08-25T05:37:08;12.07;;;5.13;;
70122;SDS011;57489;37.404;24.920;2022-08-25T05:42:08;11.67;;;5.17;;
70122;SDS011;57489;37.404;24.920;2022-08-25T05:47:09;10.60;;;5.23;;
70122;SDS011;57489;37.404;24.920;2022-08-25T05:52:09;13.63;;;5.60;;
70122;SDS011;57489;37.404;24.920;2022-08-25T05:57:10;9.47;;;4.80;;
70122;SDS011;57489;37.404;24.920;2022-08-25T06:02:10;12.60;;;5.70;;
70122;SDS011;57489;37.404;24.920;2022-08-25T06:07:11;10.68;;;4.88;;
70122;SDS011;57489;37.404;24.920;2022-08-25T06:12:11;7.83;;;3.93;;
70122;SDS011;57489;37.404;24.920;2022-08-25T06:17:11;8.97;;;4.30;;
70122;SDS011;57489;37.404;24.920;2022-08-25T06:22:12;13.53;;;4.17;;
70122;SDS011;57489;37.404;24.920;2022-08-25T06:27:13;10.90;;;4.10;;
70122;SDS011;57489;37.404;24.920;2022-08-25T06:32:14;9.23;;;4.13;;
70122;SDS011;57489;37.404;24.920;2022-08-25T06:37:14;8.10;;;3.90;;
70122;SDS011;57489;37.404;24.920;2022-08-25T06:42:14;9.97;;;4.50;;
70122;SDS011;57489;37.404;24.920;2022-08-25T06:47:15;9.63;;;4.23;;
70122;SDS011;57489;37.404;24.920;2022-08-25T06:52:16;7.72;;;3.90;;
70122;SDS011;57489;37.404;24.920;2022-08-25T06:57:17;13.03;;;5.00;;
70122;SDS011;57489;37.404;24.920;2022-08-25T07:02:17;8.93;;;3.57;;
70122;SDS011;57489;37.404;24.920;2022-08-25T07:07:18;7.70;;;4.40;;
70122;SDS011;57489;37.404;24.920;2022-08-25T07:12:19;12.52;;;4.28;;
70122;SDS011;57489;37.404;24.920;2022-08-25T07:17:20;11.70;;;4.67;;
70122;SDS011;57489;37.404;24.920;2022-08-25T07:22:21;9.25;;;5.13;;
70122;SDS011;57489;37.404;24.920;2022-08-25T07:27:22;8.97;;;4.80;;
70122;SDS011;57489;37.404;24.920;2022-08-25T07:32:22;10.80;;;4.70;;
70122;SDS011;57489;37.404;24.920;2022-08-25T07:37:23;9.53;;;4.50;;
70122;SDS011;57489;37.404;24.920;2022-08-25T07:42:23;9.65;;;5.45;;
70122;SDS011;57489;37.404;24.920;2022-08-25T07:47:24;10.43;;;4.47;;
70122;SDS011;57489;37.404;24.920;2022-08-25T07:52:24;10.20;;;4.60;;
70122;SDS011;57489;37.404;24.920;2022-08-25T07:57:25;10.57;;;5.10;;
70122;SDS011;57489;37.404;24.920;2022-08-25T08:02:26;14.50;;;6.00;;
70122;SDS011;57489;37.404;24.920;2022-08-25T08:07:26;10.67;;;5.57;;
70122;SDS011;57489;37.404;24.920;2022-08-25T08:12:27;10.97;;;5.80;;
70122;SDS011;57489;37.404;24.920;2022-08-25T08:17:27;10.83;;;5.57;;
70122;SDS011;57489;37.404;24.920;2022-08-25T08:22:28;11.13;;;4.67;;
70122;SDS011;57489;37.404;24.920;2022-08-25T08:27:28;8.77;;;4.80;;
70122;SDS011;57489;37.404;24.920;2022-08-25T08:32:29;10.37;;;5.23;;
70122;SDS011;57489;37.404;24.920;2022-08-25T08:37:30;11.30;;;5.00;;
70122;SDS011;57489;37.404;24.920;2022-08-25T08:58:48;9.97;;;4.97;;
70122;SDS011;57489;37.404;24.920;2022-08-25T09:09:03;16.33;;;6.32;;
70122;SDS011;57489;37.404;24.920;2022-08-25T09:14:11;17.33;;;7.17;;
70122;SDS011;57489;37.404;24.920;2022-08-25T09:25:26;16.48;;;7.05;;
70122;SDS011;57489;37.404;24.920;2022-08-25T09:30:27;18.07;;;7.20;;
70122;SDS011;57489;37.404;24.920;2022-08-25T09:35:37;22.65;;;7.13;;
70122;SDS011;57489;37.404;24.920;2022-08-25T09:40:40;17.15;;;7.35;;
70122;SDS011;57489;37.404;24.920;2022-08-25T09:45:44;17.40;;;6.30;;
70122;SDS011;57489;37.404;24.920;2022-08-25T09:50:47;15.77;;;5.80;;
70122;SDS011;57489;37.404;24.920;2022-08-25T09:55:58;15.13;;;5.72;;
70122;SDS011;57489;37.404;24.920;2022-08-25T10:01:06;10.50;;;5.78;;
70122;SDS011;57489;37.404;24.920;2022-08-25T10:06:12;11.63;;;5.10;;
70122;SDS011;57489;37.404;24.920;2022-08-25T10:11:28;11.73;;;4.88;;
70122;SDS011;57489;37.404;24.920;2022-08-25T10:16:38;11.02;;;5.22;;
70122;SDS011;57489;37.404;24.920;2022-08-25T10:21:40;11.30;;;5.30;;
70122;SDS011;57489;37.404;24.920;2022-08-25T10:26:57;9.80;;;5.37;;
70122;SDS011;57489;37.404;24.920;2022-08-25T10:32:08;12.13;;;4.80;;
70122;SDS011;57489;37.404;24.920;2022-08-25T10:43:10;9.85;;;4.70;;
70122;SDS011;57489;37.404;24.920;2022-08-25T10:53:56;9.60;;;4.90;;
70122;SDS011;57489;37.404;24.920;2022-08-25T11:09:39;9.18;;;4.95;;
70122;SDS011;57489;37.404;24.920;2022-08-25T11:19:54;13.77;;;5.10;;
70122;SDS011;57489;37.404;24.920;2022-08-25T11:30:15;11.63;;;5.07;;
70122;SDS011;57489;37.404;24.920;2022-08-25T11:35:18;10.25;;;4.60;;
70122;SDS011;57489;37.404;24.920;2022-08-25T11:40:39;12.10;;;4.83;;
70122;SDS011;57489;37.404;24.920;2022-08-25T11:56:10;11.50;;;5.27;;
70122;SDS011;57489;37.404;24.920;2022-08-25T12:17:37;11.90;;;5.40;;
70122;SDS011;57489;37.404;24.920;2022-08-25T12:22:39;10.60;;;4.10;;
70122;SDS011;57489;37.404;24.920;2022-08-25T12:33:18;10.00;;;4.07;;
70122;SDS011;57489;37.404;24.920;2022-08-25T12:43:41;10.43;;;3.70;;
70122;SDS011;57489;37.404;24.920;2022-08-25T12:59:23;10.90;;;4.43;;
70122;SDS011;57489;37.404;24.920;2022-08-25T13:04:34;11.18;;;4.00;;
70122;SDS011;57489;37.404;24.920;2022-08-25T13:09:45;8.98;;;4.70;;
70122;SDS011;57489;37.404;24.920;2022-08-25T13:15:05;10.43;;;4.20;;
70122;SDS011;57489;37.404;24.920;2022-08-25T13:20:18;8.75;;;4.25;;
70122;SDS011;57489;37.404;24.920;2022-08-25T13:25:23;9.60;;;4.35;;
70122;SDS011;57489;37.404;24.920;2022-08-25T13:30:35;10.77;;;4.57;;
70122;SDS011;57489;37.404;24.920;2022-08-25T13:35:36;11.47;;;4.10;;
70122;SDS011;57489;37.404;24.920;2022-08-25T13:40:36;9.37;;;4.33;;
70122;SDS011;57489;37.404;24.920;2022-08-25T13:45:41;9.00;;;4.55;;
70122;SDS011;57489;37.404;24.920;2022-08-25T13:50:44;10.87;;;4.50;;
70122;SDS011;57489;37.404;24.920;2022-08-25T13:55:57;8.70;;;4.67;;
70122;SDS011;57489;37.404;24.920;2022-08-25T14:06:42;8.88;;;4.13;;
70122;SDS011;57489;37.404;24.920;2022-08-25T14:16:49;7.68;;;4.50;;
70122;SDS011;57489;37.404;24.920;2022-08-25T14:21:53;10.60;;;4.23;;
70122;SDS011;57489;37.404;24.920;2022-08-25T14:26:55;9.52;;;4.35;;
70122;SDS011;57489;37.404;24.920;2022-08-25T14:31:56;10.40;;;4.20;;
70122;SDS011;57489;37.404;24.920;2022-08-25T14:36:57;8.50;;;4.25;;
70122;SDS011;57489;37.404;24.920;2022-08-25T14:41:58;9.17;;;4.23;;
70122;SDS011;57489;37.404;24.920;2022-08-25T14:46:58;7.20;;;3.72;;
70122;SDS011;57489;37.404;24.920;2022-08-25T14:52:03;13.77;;;4.77;;
70122;SDS011;57489;37.404;24.920;2022-08-25T14:57:08;10.52;;;4.28;;
70122;SDS011;57489;37.404;24.920;2022-08-25T15:02:09;10.90;;;4.17;;
70122;SDS011;57489;37.404;24.920;2022-08-25T15:07:12;9.77;;;3.83;;
70122;SDS011;57489;37.404;24.920;2022-08-25T15:12:12;11.70;;;4.30;;
70122;SDS011;57489;37.404;24.920;2022-08-25T15:17:13;11.03;;;4.17;;
70122;SDS011;57489;37.404;24.920;2022-08-25T15:22:14;7.93;;;3.97;;
70122;SDS011;57489;37.404;24.920;2022-08-25T15:27:17;7.87;;;3.67;;
70122;SDS011;57489;37.404;24.920;2022-08-25T15:32:19;7.97;;;4.07;;
70122;SDS011;57489;37.404;24.920;2022-08-25T15:37:19;8.43;;;3.90;;
70122;SDS011;57489;37.404;24.920;2022-08-25T15:42:20;10.13;;;4.13;;
70122;SDS011;57489;37.404;24.920;2022-08-25T15:47:21;8.00;;;4.40;;
70122;SDS011;57489;37.404;24.920;2022-08-25T15:52:22;9.13;;;4.07;;
70122;SDS011;57489;37.404;24.920;2022-08-25T15:57:23;8.30;;;4.27;;
70122;SDS011;57489;37.404;24.920;2022-08-25T16:02:23;7.67;;;3.73;;
70122;SDS011;57489;37.404;24.920;2022-08-25T16:07:24;7.87;;;4.20;;
70122;SDS011;57489;37.404;24.920;2022-08-25T16:12:24;6.60;;;3.43;;
70122;SDS011;57489;37.404;24.920;2022-08-25T16:17:25;11.35;;;3.38;;
70122;SDS011;57489;37.404;24.920;2022-08-25T16:22:26;7.27;;;3.13;;
70122;SDS011;57489;37.404;24.920;2022-08-25T16:27:26;10.07;;;3.20;;
70122;SDS011;57489;37.404;24.920;2022-08-25T16:32:27;8.97;;;3.63;;
70122;SDS011;57489;37.404;24.920;2022-08-25T16:37:27;8.90;;;3.83;;
70122;SDS011;57489;37.404;24.920;2022-08-25T16:42:27;9.23;;;3.07;;
70122;SDS011;57489;37.404;24.920;2022-08-25T16:47:28;9.37;;;2.93;;
70122;SDS011;57489;37.404;24.920;2022-08-25T16:52:28;7.07;;;3.20;;
70122;SDS011;57489;37.404;24.920;2022-08-25T16:57:30;8.83;;;2.93;;
70122;SDS011;57489;37.404;24.920;2022-08-25T17:02:31;8.13;;;2.97;;
70122;SDS011;57489;37.404;24.920;2022-08-25T17:07:32;14.20;;;3.20;;
70122;SDS011;57489;37.404;24.920;2022-08-25T17:12:32;10.17;;;3.63;;
70122;SDS011;57489;37.404;24.920;2022-08-25T17:17:33;12.32;;;3.28;;
70122;SDS011;57489;37.404;24.920;2022-08-25T17:22:34;13.57;;;4.10;;
70122;SDS011;57489;37.404;24.920;2022-08-25T17:27:34;9.63;;;3.67;;
70122;SDS011;57489;37.404;24.920;2022-08-25T17:32:35;14.63;;;3.70;;
70122;SDS011;57489;37.404;24.920;2022-08-25T17:37:35;11.60;;;3.70;;
70122;SDS011;57489;37.404;24.920;2022-08-25T17:42:36;11.90;;;4.10;;
70122;SDS011;57489;37.404;24.920;2022-08-25T17:47:36;13.10;;;4.15;;
70122;SDS011;57489;37.404;24.920;2022-08-25T17:52:37;17.10;;;5.27;;
70122;SDS011;57489;37.404;24.920;2022-08-25T17:57:37;12.30;;;4.97;;
70122;SDS011;57489;37.404;24.920;2022-08-25T18:02:38;11.90;;;4.27;;
70122;SDS011;57489;37.404;24.920;2022-08-25T18:07:38;10.80;;;3.67;;
70122;SDS011;57489;37.404;24.920;2022-08-25T18:12:39;9.90;;;4.07;;
70122;SDS011;57489;37.404;24.920;2022-08-25T18:17:40;9.80;;;3.43;;
70122;SDS011;57489;37.404;24.920;2022-08-25T18:22:41;8.70;;;3.43;;
70122;SDS011;57489;37.404;24.920;2022-08-25T18:27:42;9.20;;;3.30;;
70122;SDS011;57489;37.404;24.920;2022-08-25T18:32:42;8.00;;;3.77;;
70122;SDS011;57489;37.404;24.920;2022-08-25T18:37:42;6.67;;;3.43;;
70122;SDS011;57489;37.404;24.920;2022-08-25T18:42:43;10.73;;;4.47;;
70122;SDS011;57489;37.404;24.920;2022-08-25T18:47:43;14.13;;;4.40;;
70122;SDS011;57489;37.404;24.920;2022-08-25T18:52:44;8.37;;;4.60;;
70122;SDS011;57489;37.404;24.920;2022-08-25T18:57:45;9.53;;;4.60;;
70122;SDS011;57489;37.404;24.920;2022-08-25T19:02:46;13.73;;;5.57;;
70122;SDS011;57489;37.404;24.920;2022-08-25T19:07:48;9.52;;;5.43;;
70122;SDS011;57489;37.404;24.920;2022-08-25T19:12:49;12.93;;;5.70;;
70122;SDS011;57489;37.404;24.920;2022-08-25T19:17:51;13.00;;;6.32;;
70122;SDS011;57489;37.404;24.920;2022-08-25T19:22:52;13.75;;;5.45;;
70122;SDS011;57489;37.404;24.920;2022-08-25T19:27:52;10.87;;;5.57;;
70122;SDS011;57489;37.404;24.920;2022-08-25T19:32:53;9.17;;;5.17;;
70122;SDS011;57489;37.404;24.920;2022-08-25T19:37:54;13.65;;;5.32;;
70122;SDS011;57489;37.404;24.920;2022-08-25T19:42:56;9.93;;;4.23;;
70122;SDS011;57489;37.404;24.920;2022-08-25T19:47:56;10.27;;;4.37;;
70122;SDS011;57489;37.404;24.920;2022-08-25T19:52:57;8.53;;;4.37;;
70122;SDS011;57489;37.404;24.920;2022-08-25T19:57:57;12.07;;;3.77;;
70122;SDS011;57489;37.404;24.920;2022-08-25T20:02:58;8.48;;;5.15;;
70122;SDS011;57489;37.404;24.920;2022-08-25T20:08:00;8.00;;;4.80;;
70122;SDS011;57489;37.404;24.920;2022-08-25T20:13:00;9.13;;;4.50;;
70122;SDS011;57489;37.404;24.920;2022-08-25T20:18:01;9.00;;;3.97;;
70122;SDS011;57489;37.404;24.920;2022-08-25T20:23:02;7.47;;;3.83;;
70122;SDS011;57489;37.404;24.920;2022-08-25T20:28:02;9.70;;;4.07;;
70122;SDS011;57489;37.404;24.920;2022-08-25T20:33:03;10.13;;;4.07;;
70122;SDS011;57489;37.404;24.920;2022-08-25T20:38:04;9.48;;;4.25;;
70122;SDS011;57489;37.404;24.920;2022-08-25T20:43:04;9.10;;;3.53;;
70122;SDS011;57489;37.404;24.920;2022-08-25T20:48:05;7.93;;;3.77;;
70122;SDS011;57489;37.404;24.920;2022-08-25T20:53:05;8.27;;;3.90;;
70122;SDS011;57489;37.404;24.920;2022-08-25T20:58:06;6.83;;;3.43;;
70122;SDS011;57489;37.404;24.920;2022-08-25T21:03:07;8.70;;;4.47;;
70122;SDS011;57489;37.404;24.920;2022-08-25T21:08:08;9.90;;;4.15;;
70122;SDS011;57489;37.404;24.920;2022-08-25T21:13:09;9.40;;;3.95;;
70122;SDS011;57489;37.404;24.920;2022-08-25T21:18:10;8.37;;;4.00;;
70122;SDS011;57489;37.404;24.920;2022-08-25T21:23:10;10.37;;;3.60;;
70122;SDS011;57489;37.404;24.920;2022-08-25T21:28:11;10.07;;;4.03;;
70122;SDS011;57489;37.404;24.920;2022-08-25T21:33:11;9.73;;;4.00;;
70122;SDS011;57489;37.404;24.920;2022-08-25T21:38:12;9.07;;;4.07;;
70122;SDS011;57489;37.404;24.920;2022-08-25T21:43:13;8.77;;;3.97;;
70122;SDS011;57489;37.404;24.920;2022-08-25T21:48:13;11.70;;;3.77;;
70122;SDS011;57489;37.404;24.920;2022-08-25T21:53:14;10.32;;;3.75;;
70122;SDS011;57489;37.404;24.920;2022-08-25T21:58:14;11.13;;;3.90;;
70122;SDS011;57489;37.404;24.920;2022-08-25T22:03:15;10.43;;;3.60;;
70122;SDS011;57489;37.404;24.920;2022-08-25T22:08:16;11.27;;;3.67;;
70122;SDS011;57489;37.404;24.920;2022-08-25T22:13:16;9.30;;;3.77;;
70122;SDS011;57489;37.404;24.920;2022-08-25T22:18:17;7.33;;;3.40;;
70122;SDS011;57489;37.404;24.920;2022-08-25T22:23:18;10.43;;;3.95;;
70122;SDS011;57489;37.404;24.920;2022-08-25T22:28:19;10.63;;;3.60;;
70122;SDS011;57489;37.404;24.920;2022-08-25T22:33:21;6.82;;;3.60;;
70122;SDS011;57489;37.404;24.920;2022-08-25T22:38:21;8.97;;;3.70;;
70122;SDS011;57489;37.404;24.920;2022-08-25T22:43:22;7.87;;;2.90;;
70122;SDS011;57489;37.404;24.920;2022-08-25T22:48:22;10.03;;;3.47;;
70122;SDS011;57489;37.404;24.920;2022-08-25T22:53:23;6.68;;;3.33;;
70122;SDS011;57489;37.404;24.920;2022-08-25T22:58:23;8.93;;;3.87;;
70122;SDS011;57489;37.404;24.920;2022-08-25T23:03:24;8.27;;;3.13;;
70122;SDS011;57489;37.404;24.920;2022-08-25T23:08:26;10.83;;;3.50;;
70122;SDS011;57489;37.404;24.920;2022-08-25T23:13:26;7.07;;;3.10;;
70122;SDS011;57489;37.404;24.920;2022-08-25T23:18:27;7.97;;;3.70;;
70122;SDS011;57489;37.404;24.920;2022-08-25T23:23:29;12.27;;;3.57;;
70122;SDS011;57489;37.404;24.920;2022-08-25T23:28:34;10.00;;;3.35;;
70122;SDS011;57489;37.404;24.920;2022-08-25T23:33:35;9.98;;;3.45;;
70122;SDS011;57489;37.404;24.920;2022-08-25T23:38:36;7.13;;;3.43;;
70122;SDS011;57489;37.404;24.920;2022-08-25T23:43:37;8.43;;;3.10;;
70122;SDS011;57489;37.404;24.920;2022-08-25T23:48:38;8.13;;;3.33;;
70122;SDS011;57489;37.404;24.920;2022-08-25T23:53:39;8.57;;;3.63;;
70122;SDS011;57489;37.404;24.920;2022-08-25T23:58:39;11.40;;;3.80;;
